sensor_id;sensor_type;location;lat;lon;timestamp;P1;durP1;ratioP1;P2;durP2;ratioP2
53833;SDS011;39735;51.432;5.482;2022-11-21T00:03:43;29.25;;;4.95;;
53833;SDS011;39735;51.432;5.482;2022-11-21T00:06:08;22.60;;;4.18;;
53833;SDS011;39735;51.432;5.482;2022-11-21T00:08:34;31.08;;;6.13;;
53833;SDS011;39735;51.432;5.482;2022-11-21T00:10:59;14.98;;;4.15;;
53833;SDS011;39735;51.432;5.482;2022-11-21T00:13:25;41.75;;;4.88;;
53833;SDS011;39735;51.432;5.482;2022-11-21T00:15:50;26.60;;;5.32;;
53833;SDS011;39735;51.432;5.482;2022-11-21T00:18:16;24.92;;;3.60;;
53833;SDS011;39735;51.432;5.482;2022-11-21T00:20:41;38.90;;;5.68;;
53833;SDS011;39735;51.432;5.482;2022-11-21T00:23:07;20.05;;;3.25;;
53833;SDS011;39735;51.432;5.482;2022-11-21T00:25:33;21.30;;;4.32;;
53833;SDS011;39735;51.432;5.482;2022-11-21T00:27:59;37.03;;;6.88;;
53833;SDS011;39735;51.432;5.482;2022-11-21T00:30:24;29.58;;;5.72;;
53833;SDS011;39735;51.432;5.482;2022-11-21T00:32:50;25.38;;;4.32;;
53833;SDS011;39735;51.432;5.482;2022-11-21T00:35:15;42.28;;;6.65;;
53833;SDS011;39735;51.432;5.482;2022-11-21T00:37:41;40.92;;;5.70;;
53833;SDS011;39735;51.432;5.482;2022-11-21T00:40:06;42.53;;;10.38;;
53833;SDS011;39735;51.432;5.482;2022-11-21T00:42:32;27.05;;;5.68;;
53833;SDS011;39735;51.432;5.482;2022-11-21T00:44:57;28.02;;;5.10;;
53833;SDS011;39735;51.432;5.482;2022-11-21T00:47:23;29.98;;;5.80;;
53833;SDS011;39735;51.432;5.482;2022-11-21T00:49:48;41.10;;;7.95;;
53833;SDS011;39735;51.432;5.482;2022-11-21T00:52:14;29.73;;;4.65;;
53833;SDS011;39735;51.432;5.482;2022-11-21T00:54:40;23.00;;;5.13;;
53833;SDS011;39735;51.432;5.482;2022-11-21T00:57:06;24.58;;;5.72;;
53833;SDS011;39735;51.432;5.482;2022-11-21T00:59:31;29.00;;;4.50;;
53833;SDS011;39735;51.432;5.482;2022-11-21T01:01:56;31.08;;;7.15;;
53833;SDS011;39735;51.432;5.482;2022-11-21T01:04:22;24.98;;;5.30;;
53833;SDS011;39735;51.432;5.482;2022-11-21T01:06:47;41.33;;;8.88;;
53833;SDS011;39735;51.432;5.482;2022-11-21T01:09:12;31.92;;;4.78;;
53833;SDS011;39735;51.432;5.482;2022-11-21T01:11:38;27.63;;;5.20;;
53833;SDS011;39735;51.432;5.482;2022-11-21T01:14:03;42.75;;;7.43;;
53833;SDS011;39735;51.432;5.482;2022-11-21T01:16:28;19.08;;;7.15;;
53833;SDS011;39735;51.432;5.482;2022-11-21T01:18:55;27.63;;;5.93;;
53833;SDS011;39735;51.432;5.482;2022-11-21T01:21:24;21.17;;;5.07;;
53833;SDS011;39735;51.432;5.482;2022-11-21T01:23:52;51.35;;;7.00;;
53833;SDS011;39735;51.432;5.482;2022-11-21T01:26:19;19.38;;;6.22;;
53833;SDS011;39735;51.432;5.482;2022-11-21T01:28:49;20.33;;;5.75;;
53833;SDS011;39735;51.432;5.482;2022-11-21T01:31:25;24.27;;;5.35;;
53833;SDS011;39735;51.432;5.482;2022-11-21T01:33:52;45.75;;;6.40;;
53833;SDS011;39735;51.432;5.482;2022-11-21T01:36:22;22.73;;;6.72;;
53833;SDS011;39735;51.432;5.482;2022-11-21T01:38:49;19.17;;;4.57;;
53833;SDS011;39735;51.432;5.482;2022-11-21T01:41:20;19.45;;;4.38;;
53833;SDS011;39735;51.432;5.482;2022-11-21T01:43:47;16.50;;;4.05;;
53833;SDS011;39735;51.432;5.482;2022-11-21T01:46:14;28.08;;;8.05;;
53833;SDS011;39735;51.432;5.482;2022-11-21T01:48:45;41.17;;;10.50;;
53833;SDS011;39735;51.432;5.482;2022-11-21T01:51:19;27.73;;;4.95;;
53833;SDS011;39735;51.432;5.482;2022-11-21T01:53:47;35.25;;;6.40;;
53833;SDS011;39735;51.432;5.482;2022-11-21T01:56:39;31.67;;;7.82;;
53833;SDS011;39735;51.432;5.482;2022-11-21T01:59:17;23.75;;;5.43;;
53833;SDS011;39735;51.432;5.482;2022-11-21T02:01:46;30.10;;;5.45;;
53833;SDS011;39735;51.432;5.482;2022-11-21T02:04:12;42.03;;;6.35;;
53833;SDS011;39735;51.432;5.482;2022-11-21T02:06:38;23.77;;;5.32;;
53833;SDS011;39735;51.432;5.482;2022-11-21T02:09:04;24.52;;;6.18;;
53833;SDS011;39735;51.432;5.482;2022-11-21T02:11:44;28.83;;;4.68;;
53833;SDS011;39735;51.432;5.482;2022-11-21T02:14:12;41.30;;;5.22;;
53833;SDS011;39735;51.432;5.482;2022-11-21T02:16:37;15.27;;;4.25;;
53833;SDS011;39735;51.432;5.482;2022-11-21T02:19:03;40.78;;;6.35;;
53833;SDS011;39735;51.432;5.482;2022-11-21T02:24:13;21.58;;;5.90;;
53833;SDS011;39735;51.432;5.482;2022-11-21T02:26:51;16.40;;;6.22;;
53833;SDS011;39735;51.432;5.482;2022-11-21T02:29:17;19.88;;;6.53;;
53833;SDS011;39735;51.432;5.482;2022-11-21T02:31:42;13.80;;;3.95;;
53833;SDS011;39735;51.432;5.482;2022-11-21T02:34:07;26.67;;;6.57;;
53833;SDS011;39735;51.432;5.482;2022-11-21T02:36:43;18.42;;;5.65;;
53833;SDS011;39735;51.432;5.482;2022-11-21T02:39:14;23.25;;;6.00;;
53833;SDS011;39735;51.432;5.482;2022-11-21T02:41:50;21.90;;;7.70;;
53833;SDS011;39735;51.432;5.482;2022-11-21T02:45:05;26.92;;;7.60;;
53833;SDS011;39735;51.432;5.482;2022-11-21T02:47:12;30.42;;;4.78;;
53833;SDS011;39735;51.432;5.482;2022-11-21T02:49:49;25.25;;;6.63;;
53833;SDS011;39735;51.432;5.482;2022-11-21T02:52:19;30.35;;;7.60;;
53833;SDS011;39735;51.432;5.482;2022-11-21T02:54:45;18.83;;;5.63;;
53833;SDS011;39735;51.432;5.482;2022-11-21T02:57:10;37.30;;;6.78;;
53833;SDS011;39735;51.432;5.482;2022-11-21T02:59:35;32.72;;;5.72;;
53833;SDS011;39735;51.432;5.482;2022-11-21T03:02:01;29.70;;;6.65;;
53833;SDS011;39735;51.432;5.482;2022-11-21T03:04:26;33.30;;;7.20;;
53833;SDS011;39735;51.432;5.482;2022-11-21T03:06:52;22.42;;;6.13;;
53833;SDS011;39735;51.432;5.482;2022-11-21T03:09:18;25.13;;;7.25;;
53833;SDS011;39735;51.432;5.482;2022-11-21T03:11:43;22.33;;;5.47;;
53833;SDS011;39735;51.432;5.482;2022-11-21T03:14:09;22.88;;;5.50;;
53833;SDS011;39735;51.432;5.482;2022-11-21T03:16:34;18.73;;;6.72;;
53833;SDS011;39735;51.432;5.482;2022-11-21T03:19:00;10.60;;;4.10;;
53833;SDS011;39735;51.432;5.482;2022-11-21T03:21:26;21.60;;;7.05;;
53833;SDS011;39735;51.432;5.482;2022-11-21T03:23:51;28.58;;;6.05;;
53833;SDS011;39735;51.432;5.482;2022-11-21T03:26:16;21.45;;;5.40;;
53833;SDS011;39735;51.432;5.482;2022-11-21T03:28:42;17.80;;;5.60;;
53833;SDS011;39735;51.432;5.482;2022-11-21T03:31:07;36.20;;;6.18;;
53833;SDS011;39735;51.432;5.482;2022-11-21T03:33:32;24.73;;;5.72;;
53833;SDS011;39735;51.432;5.482;2022-11-21T03:35:58;35.83;;;8.20;;
53833;SDS011;39735;51.432;5.482;2022-11-21T03:38:23;21.90;;;7.20;;
53833;SDS011;39735;51.432;5.482;2022-11-21T03:40:48;21.13;;;5.85;;
53833;SDS011;39735;51.432;5.482;2022-11-21T03:43:14;12.50;;;5.10;;
53833;SDS011;39735;51.432;5.482;2022-11-21T03:45:39;35.10;;;7.60;;
53833;SDS011;39735;51.432;5.482;2022-11-21T03:48:05;23.48;;;7.28;;
53833;SDS011;39735;51.432;5.482;2022-11-21T03:50:30;22.75;;;6.97;;
53833;SDS011;39735;51.432;5.482;2022-11-21T03:52:55;15.38;;;7.03;;
53833;SDS011;39735;51.432;5.482;2022-11-21T03:55:21;24.33;;;6.93;;
53833;SDS011;39735;51.432;5.482;2022-11-21T03:57:46;30.75;;;8.32;;
53833;SDS011;39735;51.432;5.482;2022-11-21T04:00:12;23.45;;;10.18;;
53833;SDS011;39735;51.432;5.482;2022-11-21T04:02:38;25.63;;;13.70;;
53833;SDS011;39735;51.432;5.482;2022-11-21T04:05:03;36.88;;;13.30;;
53833;SDS011;39735;51.432;5.482;2022-11-21T04:07:29;27.08;;;13.68;;
53833;SDS011;39735;51.432;5.482;2022-11-21T04:09:54;29.10;;;12.15;;
53833;SDS011;39735;51.432;5.482;2022-11-21T04:12:19;21.55;;;13.25;;
53833;SDS011;39735;51.432;5.482;2022-11-21T04:14:45;17.48;;;11.18;;
53833;SDS011;39735;51.432;5.482;2022-11-21T04:17:10;25.30;;;13.18;;
53833;SDS011;39735;51.432;5.482;2022-11-21T04:19:35;28.27;;;13.70;;
53833;SDS011;39735;51.432;5.482;2022-11-21T04:22:01;23.55;;;15.40;;
53833;SDS011;39735;51.432;5.482;2022-11-21T04:24:26;44.17;;;16.23;;
53833;SDS011;39735;51.432;5.482;2022-11-21T04:26:53;32.33;;;15.40;;
53833;SDS011;39735;51.432;5.482;2022-11-21T04:29:19;30.60;;;14.32;;
53833;SDS011;39735;51.432;5.482;2022-11-21T04:31:44;29.52;;;16.13;;
53833;SDS011;39735;51.432;5.482;2022-11-21T04:34:10;39.15;;;20.67;;
53833;SDS011;39735;51.432;5.482;2022-11-21T04:36:35;31.30;;;19.02;;
53833;SDS011;39735;51.432;5.482;2022-11-21T04:39:00;34.83;;;18.55;;
53833;SDS011;39735;51.432;5.482;2022-11-21T04:41:26;33.88;;;19.45;;
53833;SDS011;39735;51.432;5.482;2022-11-21T04:43:51;36.35;;;20.35;;
53833;SDS011;39735;51.432;5.482;2022-11-21T04:46:16;32.38;;;18.40;;
53833;SDS011;39735;51.432;5.482;2022-11-21T04:48:42;29.95;;;19.60;;
53833;SDS011;39735;51.432;5.482;2022-11-21T04:51:07;34.67;;;20.60;;
53833;SDS011;39735;51.432;5.482;2022-11-21T04:53:32;34.92;;;19.67;;
53833;SDS011;39735;51.432;5.482;2022-11-21T04:55:58;30.50;;;19.75;;
53833;SDS011;39735;51.432;5.482;2022-11-21T04:58:24;37.90;;;22.23;;
53833;SDS011;39735;51.432;5.482;2022-11-21T05:00:49;39.53;;;21.42;;
53833;SDS011;39735;51.432;5.482;2022-11-21T05:03:15;37.58;;;20.60;;
53833;SDS011;39735;51.432;5.482;2022-11-21T05:05:40;40.13;;;19.00;;
53833;SDS011;39735;51.432;5.482;2022-11-21T05:08:06;39.33;;;18.48;;
53833;SDS011;39735;51.432;5.482;2022-11-21T05:10:31;27.75;;;17.15;;
53833;SDS011;39735;51.432;5.482;2022-11-21T05:13:16;35.67;;;18.50;;
53833;SDS011;39735;51.432;5.482;2022-11-21T05:15:44;28.63;;;16.27;;
53833;SDS011;39735;51.432;5.482;2022-11-21T05:18:11;36.85;;;17.52;;
53833;SDS011;39735;51.432;5.482;2022-11-21T05:20:37;24.25;;;14.70;;
53833;SDS011;39735;51.432;5.482;2022-11-21T05:23:02;25.05;;;15.38;;
53833;SDS011;39735;51.432;5.482;2022-11-21T05:25:27;29.75;;;14.88;;
53833;SDS011;39735;51.432;5.482;2022-11-21T05:27:56;27.83;;;14.60;;
53833;SDS011;39735;51.432;5.482;2022-11-21T05:30:21;32.80;;;13.52;;
53833;SDS011;39735;51.432;5.482;2022-11-21T05:32:47;30.58;;;13.63;;
53833;SDS011;39735;51.432;5.482;2022-11-21T05:35:12;29.02;;;11.82;;
53833;SDS011;39735;51.432;5.482;2022-11-21T05:37:37;24.65;;;11.07;;
53833;SDS011;39735;51.432;5.482;2022-11-21T05:40:03;21.73;;;10.68;;
53833;SDS011;39735;51.432;5.482;2022-11-21T05:42:28;18.98;;;8.75;;
53833;SDS011;39735;51.432;5.482;2022-11-21T05:45:12;14.37;;;6.87;;
53833;SDS011;39735;51.432;5.482;2022-11-21T05:47:40;22.17;;;7.18;;
53833;SDS011;39735;51.432;5.482;2022-11-21T05:50:05;11.25;;;5.95;;
53833;SDS011;39735;51.432;5.482;2022-11-21T05:52:31;14.00;;;7.25;;
53833;SDS011;39735;51.432;5.482;2022-11-21T05:54:56;22.13;;;9.05;;
53833;SDS011;39735;51.432;5.482;2022-11-21T05:57:22;17.05;;;8.80;;
53833;SDS011;39735;51.432;5.482;2022-11-21T05:59:47;26.50;;;9.20;;
53833;SDS011;39735;51.432;5.482;2022-11-21T06:02:12;21.92;;;11.25;;
53833;SDS011;39735;51.432;5.482;2022-11-21T06:04:56;24.05;;;9.85;;
53833;SDS011;39735;51.432;5.482;2022-11-21T06:07:22;30.50;;;10.55;;
53833;SDS011;39735;51.432;5.482;2022-11-21T06:09:47;22.63;;;9.27;;
53833;SDS011;39735;51.432;5.482;2022-11-21T06:12:12;16.42;;;10.27;;
53833;SDS011;39735;51.432;5.482;2022-11-21T06:14:38;21.48;;;11.00;;
53833;SDS011;39735;51.432;5.482;2022-11-21T06:17:03;20.00;;;10.65;;
53833;SDS011;39735;51.432;5.482;2022-11-21T06:19:28;26.30;;;11.68;;
53833;SDS011;39735;51.432;5.482;2022-11-21T06:21:54;18.80;;;10.40;;
53833;SDS011;39735;51.432;5.482;2022-11-21T06:24:19;24.85;;;12.82;;
53833;SDS011;39735;51.432;5.482;2022-11-21T06:26:44;49.15;;;12.48;;
53833;SDS011;39735;51.432;5.482;2022-11-21T06:29:10;32.33;;;12.15;;
53833;SDS011;39735;51.432;5.482;2022-11-21T06:31:35;23.30;;;11.80;;
53833;SDS011;39735;51.432;5.482;2022-11-21T06:34:01;19.60;;;10.88;;
53833;SDS011;39735;51.432;5.482;2022-11-21T06:36:26;26.17;;;11.35;;
53833;SDS011;39735;51.432;5.482;2022-11-21T06:38:52;24.77;;;11.77;;
53833;SDS011;39735;51.432;5.482;2022-11-21T06:41:19;22.80;;;13.98;;
53833;SDS011;39735;51.432;5.482;2022-11-21T06:43:46;24.67;;;13.20;;
53833;SDS011;39735;51.432;5.482;2022-11-21T06:46:12;17.75;;;12.25;;
53833;SDS011;39735;51.432;5.482;2022-11-21T06:48:38;31.42;;;12.98;;
53833;SDS011;39735;51.432;5.482;2022-11-21T06:51:04;23.02;;;12.82;;
53833;SDS011;39735;51.432;5.482;2022-11-21T06:53:30;21.17;;;11.00;;
53833;SDS011;39735;51.432;5.482;2022-11-21T06:56:00;22.08;;;10.73;;
53833;SDS011;39735;51.432;5.482;2022-11-21T06:58:26;18.02;;;10.50;;
53833;SDS011;39735;51.432;5.482;2022-11-21T07:00:52;15.63;;;10.95;;
53833;SDS011;39735;51.432;5.482;2022-11-21T07:03:17;31.42;;;10.95;;
53833;SDS011;39735;51.432;5.482;2022-11-21T07:05:43;24.20;;;11.57;;
53833;SDS011;39735;51.432;5.482;2022-11-21T07:08:08;26.05;;;9.57;;
53833;SDS011;39735;51.432;5.482;2022-11-21T07:10:33;21.90;;;9.00;;
53833;SDS011;39735;51.432;5.482;2022-11-21T07:12:59;22.80;;;9.23;;
53833;SDS011;39735;51.432;5.482;2022-11-21T07:15:44;21.67;;;9.95;;
53833;SDS011;39735;51.432;5.482;2022-11-21T07:18:10;19.52;;;9.90;;
53833;SDS011;39735;51.432;5.482;2022-11-21T07:20:36;26.77;;;9.98;;
53833;SDS011;39735;51.432;5.482;2022-11-21T07:23:01;27.13;;;9.38;;
53833;SDS011;39735;51.432;5.482;2022-11-21T07:25:27;22.02;;;10.25;;
53833;SDS011;39735;51.432;5.482;2022-11-21T07:27:52;17.42;;;8.75;;
53833;SDS011;39735;51.432;5.482;2022-11-21T07:30:18;28.48;;;10.60;;
53833;SDS011;39735;51.432;5.482;2022-11-21T07:32:43;19.60;;;9.15;;
53833;SDS011;39735;51.432;5.482;2022-11-21T07:35:08;23.17;;;8.52;;
53833;SDS011;39735;51.432;5.482;2022-11-21T07:37:37;27.40;;;8.05;;
53833;SDS011;39735;51.432;5.482;2022-11-21T07:40:03;12.65;;;8.82;;
53833;SDS011;39735;51.432;5.482;2022-11-21T07:42:30;32.03;;;7.57;;
53833;SDS011;39735;51.432;5.482;2022-11-21T07:44:58;28.67;;;7.45;;
53833;SDS011;39735;51.432;5.482;2022-11-21T07:47:24;27.67;;;7.90;;
53833;SDS011;39735;51.432;5.482;2022-11-21T07:49:49;15.50;;;7.78;;
53833;SDS011;39735;51.432;5.482;2022-11-21T07:52:14;17.67;;;6.97;;
53833;SDS011;39735;51.432;5.482;2022-11-21T07:54:40;25.25;;;10.60;;
53833;SDS011;39735;51.432;5.482;2022-11-21T07:57:05;20.00;;;7.97;;
53833;SDS011;39735;51.432;5.482;2022-11-21T07:59:30;21.70;;;8.80;;
53833;SDS011;39735;51.432;5.482;2022-11-21T08:01:56;26.42;;;9.80;;
53833;SDS011;39735;51.432;5.482;2022-11-21T08:04:21;27.85;;;8.20;;
53833;SDS011;39735;51.432;5.482;2022-11-21T08:06:46;18.25;;;7.93;;
53833;SDS011;39735;51.432;5.482;2022-11-21T08:09:12;28.52;;;8.82;;
53833;SDS011;39735;51.432;5.482;2022-11-21T08:11:37;50.17;;;6.72;;
53833;SDS011;39735;51.432;5.482;2022-11-21T08:14:03;21.25;;;6.60;;
53833;SDS011;39735;51.432;5.482;2022-11-21T08:16:28;33.70;;;9.20;;
53833;SDS011;39735;51.432;5.482;2022-11-21T08:18:56;19.88;;;6.43;;
53833;SDS011;39735;51.432;5.482;2022-11-21T08:21:22;11.07;;;6.55;;
53833;SDS011;39735;51.432;5.482;2022-11-21T08:23:48;36.88;;;8.32;;
53833;SDS011;39735;51.432;5.482;2022-11-21T08:26:13;13.00;;;7.20;;
53833;SDS011;39735;51.432;5.482;2022-11-21T08:28:38;19.45;;;8.25;;
53833;SDS011;39735;51.432;5.482;2022-11-21T08:31:04;11.35;;;7.13;;
53833;SDS011;39735;51.432;5.482;2022-11-21T08:33:30;19.98;;;6.63;;
53833;SDS011;39735;51.432;5.482;2022-11-21T08:35:56;13.20;;;7.35;;
53833;SDS011;39735;51.432;5.482;2022-11-21T08:38:21;29.02;;;8.20;;
53833;SDS011;39735;51.432;5.482;2022-11-21T08:40:46;20.63;;;6.78;;
53833;SDS011;39735;51.432;5.482;2022-11-21T08:43:32;21.70;;;7.65;;
53833;SDS011;39735;51.432;5.482;2022-11-21T08:45:57;33.00;;;9.55;;
53833;SDS011;39735;51.432;5.482;2022-11-21T08:48:22;16.60;;;7.43;;
53833;SDS011;39735;51.432;5.482;2022-11-21T08:50:48;13.30;;;6.32;;
53833;SDS011;39735;51.432;5.482;2022-11-21T08:53:13;24.35;;;7.63;;
53833;SDS011;39735;51.432;5.482;2022-11-21T08:55:38;18.83;;;7.10;;
53833;SDS011;39735;51.432;5.482;2022-11-21T08:58:04;19.52;;;7.00;;
53833;SDS011;39735;51.432;5.482;2022-11-21T09:00:29;21.48;;;6.40;;
53833;SDS011;39735;51.432;5.482;2022-11-21T09:02:54;15.40;;;4.70;;
53833;SDS011;39735;51.432;5.482;2022-11-21T09:05:20;12.25;;;5.43;;
53833;SDS011;39735;51.432;5.482;2022-11-21T09:07:45;19.23;;;6.22;;
53833;SDS011;39735;51.432;5.482;2022-11-21T09:10:10;11.75;;;5.07;;
53833;SDS011;39735;51.432;5.482;2022-11-21T09:12:36;12.10;;;6.25;;
53833;SDS011;39735;51.432;5.482;2022-11-21T09:15:02;24.00;;;5.57;;
53833;SDS011;39735;51.432;5.482;2022-11-21T09:17:46;32.00;;;6.95;;
53833;SDS011;39735;51.432;5.482;2022-11-21T09:20:31;17.75;;;7.20;;
53833;SDS011;39735;51.432;5.482;2022-11-21T09:23:02;19.80;;;8.32;;
53833;SDS011;39735;51.432;5.482;2022-11-21T09:25:35;34.08;;;11.15;;
53833;SDS011;39735;51.432;5.482;2022-11-21T09:28:04;16.50;;;5.95;;
53833;SDS011;39735;51.432;5.482;2022-11-21T09:30:30;16.08;;;6.40;;
53833;SDS011;39735;51.432;5.482;2022-11-21T09:33:02;13.88;;;6.55;;
53833;SDS011;39735;51.432;5.482;2022-11-21T09:35:29;14.80;;;6.93;;
53833;SDS011;39735;51.432;5.482;2022-11-21T09:37:55;12.18;;;7.55;;
53833;SDS011;39735;51.432;5.482;2022-11-21T09:40:20;13.95;;;6.45;;
53833;SDS011;39735;51.432;5.482;2022-11-21T09:48:28;19.58;;;6.90;;
53833;SDS011;39735;51.432;5.482;2022-11-21T09:50:59;25.55;;;8.05;;
53833;SDS011;39735;51.432;5.482;2022-11-21T09:53:32;29.23;;;9.88;;
53833;SDS011;39735;51.432;5.482;2022-11-21T09:56:03;20.30;;;8.13;;
53833;SDS011;39735;51.432;5.482;2022-11-21T09:58:42;26.55;;;9.43;;
53833;SDS011;39735;51.432;5.482;2022-11-21T10:01:20;22.88;;;7.53;;
53833;SDS011;39735;51.432;5.482;2022-11-21T10:03:46;19.05;;;8.10;;
53833;SDS011;39735;51.432;5.482;2022-11-21T10:06:16;21.17;;;6.93;;
53833;SDS011;39735;51.432;5.482;2022-11-21T10:11:32;22.77;;;7.55;;
53833;SDS011;39735;51.432;5.482;2022-11-21T10:17:15;15.68;;;6.53;;
53833;SDS011;39735;51.432;5.482;2022-11-21T10:19:50;22.15;;;7.80;;
53833;SDS011;39735;51.432;5.482;2022-11-21T10:22:54;15.95;;;8.15;;
53833;SDS011;39735;51.432;5.482;2022-11-21T10:25:37;33.05;;;6.65;;
53833;SDS011;39735;51.432;5.482;2022-11-21T10:28:05;19.77;;;6.57;;
53833;SDS011;39735;51.432;5.482;2022-11-21T10:30:35;10.90;;;6.45;;
53833;SDS011;39735;51.432;5.482;2022-11-21T10:33:07;14.63;;;5.50;;
53833;SDS011;39735;51.432;5.482;2022-11-21T10:35:38;11.32;;;5.15;;
53833;SDS011;39735;51.432;5.482;2022-11-21T10:38:24;11.43;;;5.25;;
53833;SDS011;39735;51.432;5.482;2022-11-21T10:46:06;16.33;;;4.97;;
53833;SDS011;39735;51.432;5.482;2022-11-21T10:48:32;9.95;;;4.47;;
53833;SDS011;39735;51.432;5.482;2022-11-21T10:51:09;20.90;;;4.53;;
53833;SDS011;39735;51.432;5.482;2022-11-21T10:53:42;10.55;;;4.55;;
53833;SDS011;39735;51.432;5.482;2022-11-21T10:56:26;12.27;;;3.60;;
53833;SDS011;39735;51.432;5.482;2022-11-21T10:58:52;9.15;;;3.63;;
53833;SDS011;39735;51.432;5.482;2022-11-21T11:01:24;34.63;;;3.78;;
53833;SDS011;39735;51.432;5.482;2022-11-21T11:04:14;17.08;;;4.22;;
53833;SDS011;39735;51.432;5.482;2022-11-21T11:06:42;35.13;;;7.60;;
53833;SDS011;39735;51.432;5.482;2022-11-21T11:11:52;20.73;;;5.15;;
53833;SDS011;39735;51.432;5.482;2022-11-21T11:14:53;17.90;;;3.90;;
53833;SDS011;39735;51.432;5.482;2022-11-21T11:17:14;23.70;;;4.00;;
53833;SDS011;39735;51.432;5.482;2022-11-21T11:19:39;14.50;;;3.83;;
53833;SDS011;39735;51.432;5.482;2022-11-21T11:22:28;8.57;;;3.67;;
53833;SDS011;39735;51.432;5.482;2022-11-21T11:24:54;10.95;;;3.40;;
53833;SDS011;39735;51.432;5.482;2022-11-21T11:27:25;8.27;;;2.78;;
53833;SDS011;39735;51.432;5.482;2022-11-21T11:29:51;11.27;;;2.90;;
53833;SDS011;39735;51.432;5.482;2022-11-21T11:32:17;5.80;;;2.65;;
53833;SDS011;39735;51.432;5.482;2022-11-21T11:34:50;13.13;;;3.33;;
53833;SDS011;39735;51.432;5.482;2022-11-21T11:37:34;7.45;;;2.83;;
53833;SDS011;39735;51.432;5.482;2022-11-21T11:40:23;10.80;;;2.58;;
53833;SDS011;39735;51.432;5.482;2022-11-21T11:46:10;5.40;;;2.08;;
53833;SDS011;39735;51.432;5.482;2022-11-21T11:49:11;18.42;;;3.42;;
53833;SDS011;39735;51.432;5.482;2022-11-21T11:51:44;10.05;;;2.80;;
53833;SDS011;39735;51.432;5.482;2022-11-21T11:54:13;15.68;;;2.13;;
53833;SDS011;39735;51.432;5.482;2022-11-21T11:56:39;10.98;;;3.40;;
53833;SDS011;39735;51.432;5.482;2022-11-21T12:04:28;9.75;;;2.33;;
53833;SDS011;39735;51.432;5.482;2022-11-21T12:07:08;9.32;;;3.10;;
53833;SDS011;39735;51.432;5.482;2022-11-21T12:12:41;8.50;;;3.10;;
53833;SDS011;39735;51.432;5.482;2022-11-21T12:23:10;6.28;;;2.08;;
53833;SDS011;39735;51.432;5.482;2022-11-21T12:25:37;17.73;;;4.55;;
53833;SDS011;39735;51.432;5.482;2022-11-21T12:28:08;3.85;;;2.17;;
53833;SDS011;39735;51.432;5.482;2022-11-21T12:30:51;23.48;;;4.03;;
53833;SDS011;39735;51.432;5.482;2022-11-21T12:33:31;21.80;;;4.55;;
53833;SDS011;39735;51.432;5.482;2022-11-21T12:36:07;29.52;;;3.60;;
53833;SDS011;39735;51.432;5.482;2022-11-21T12:44:21;16.08;;;5.03;;
53833;SDS011;39735;51.432;5.482;2022-11-21T12:47:26;4.43;;;1.83;;
53833;SDS011;39735;51.432;5.482;2022-11-21T12:50:23;9.55;;;2.85;;
53833;SDS011;39735;51.432;5.482;2022-11-21T12:53:16;10.15;;;3.17;;
53833;SDS011;39735;51.432;5.482;2022-11-21T12:56:12;9.82;;;2.30;;
53833;SDS011;39735;51.432;5.482;2022-11-21T12:58:45;24.67;;;3.47;;
53833;SDS011;39735;51.432;5.482;2022-11-21T13:04:17;6.85;;;3.08;;
53833;SDS011;39735;51.432;5.482;2022-11-21T13:06:45;14.32;;;2.40;;
53833;SDS011;39735;51.432;5.482;2022-11-21T13:09:14;16.85;;;2.78;;
53833;SDS011;39735;51.432;5.482;2022-11-21T13:19:43;19.10;;;4.03;;
53833;SDS011;39735;51.432;5.482;2022-11-21T13:25:01;13.52;;;2.60;;
53833;SDS011;39735;51.432;5.482;2022-11-21T13:32:40;24.58;;;4.25;;
53833;SDS011;39735;51.432;5.482;2022-11-21T13:38:06;12.90;;;3.90;;
53833;SDS011;39735;51.432;5.482;2022-11-21T13:40:33;21.65;;;4.28;;
53833;SDS011;39735;51.432;5.482;2022-11-21T13:45:41;17.38;;;3.60;;
53833;SDS011;39735;51.432;5.482;2022-11-21T14:05:19;17.52;;;2.53;;
53833;SDS011;39735;51.432;5.482;2022-11-21T14:07:43;7.22;;;2.33;;
53833;SDS011;39735;51.432;5.482;2022-11-21T14:12:52;10.90;;;3.53;;
53833;SDS011;39735;51.432;5.482;2022-11-21T14:15:20;11.20;;;2.28;;
53833;SDS011;39735;51.432;5.482;2022-11-21T14:17:56;13.20;;;4.50;;
53833;SDS011;39735;51.432;5.482;2022-11-21T14:20:26;11.63;;;3.65;;
53833;SDS011;39735;51.432;5.482;2022-11-21T14:25:21;7.20;;;2.65;;
53833;SDS011;39735;51.432;5.482;2022-11-21T14:27:57;9.25;;;2.65;;
53833;SDS011;39735;51.432;5.482;2022-11-21T14:30:26;6.40;;;2.97;;
53833;SDS011;39735;51.432;5.482;2022-11-21T14:32:53;13.93;;;3.60;;
53833;SDS011;39735;51.432;5.482;2022-11-21T14:35:20;22.50;;;4.13;;
53833;SDS011;39735;51.432;5.482;2022-11-21T14:37:46;17.42;;;4.45;;
53833;SDS011;39735;51.432;5.482;2022-11-21T14:40:18;20.95;;;3.90;;
53833;SDS011;39735;51.432;5.482;2022-11-21T14:42:45;10.07;;;4.80;;
53833;SDS011;39735;51.432;5.482;2022-11-21T14:45:18;10.10;;;2.75;;
53833;SDS011;39735;51.432;5.482;2022-11-21T14:47:50;12.85;;;4.03;;
53833;SDS011;39735;51.432;5.482;2022-11-21T14:55:23;14.95;;;2.03;;
53833;SDS011;39735;51.432;5.482;2022-11-21T14:57:50;27.73;;;2.83;;
53833;SDS011;39735;51.432;5.482;2022-11-21T15:00:19;8.25;;;3.60;;
53833;SDS011;39735;51.432;5.482;2022-11-21T15:02:49;16.08;;;2.35;;
53833;SDS011;39735;51.432;5.482;2022-11-21T15:05:17;9.52;;;4.15;;
53833;SDS011;39735;51.432;5.482;2022-11-21T15:07:45;7.35;;;3.97;;
53833;SDS011;39735;51.432;5.482;2022-11-21T15:10:12;16.77;;;3.22;;
53833;SDS011;39735;51.432;5.482;2022-11-21T15:13:01;23.98;;;4.80;;
53833;SDS011;39735;51.432;5.482;2022-11-21T15:17:59;20.58;;;4.20;;
53833;SDS011;39735;51.432;5.482;2022-11-21T15:20:29;9.00;;;4.18;;
53833;SDS011;39735;51.432;5.482;2022-11-21T15:22:55;13.05;;;4.15;;
53833;SDS011;39735;51.432;5.482;2022-11-21T15:25:23;22.65;;;5.10;;
53833;SDS011;39735;51.432;5.482;2022-11-21T15:27:50;15.48;;;3.00;;
53833;SDS011;39735;51.432;5.482;2022-11-21T15:30:33;15.73;;;3.67;;
53833;SDS011;39735;51.432;5.482;2022-11-21T15:33:03;8.05;;;3.90;;
53833;SDS011;39735;51.432;5.482;2022-11-21T15:35:42;14.70;;;3.67;;
53833;SDS011;39735;51.432;5.482;2022-11-21T15:41:02;5.72;;;2.67;;
53833;SDS011;39735;51.432;5.482;2022-11-21T15:46:02;5.55;;;3.53;;
53833;SDS011;39735;51.432;5.482;2022-11-21T15:48:28;12.15;;;3.20;;
53833;SDS011;39735;51.432;5.482;2022-11-21T15:50:54;19.42;;;6.25;;
53833;SDS011;39735;51.432;5.482;2022-11-21T15:53:20;20.02;;;3.28;;
53833;SDS011;39735;51.432;5.482;2022-11-21T15:55:45;22.52;;;4.30;;
53833;SDS011;39735;51.432;5.482;2022-11-21T15:58:11;5.72;;;2.83;;
53833;SDS011;39735;51.432;5.482;2022-11-21T16:00:36;14.63;;;3.78;;
53833;SDS011;39735;51.432;5.482;2022-11-21T16:03:01;12.98;;;3.85;;
53833;SDS011;39735;51.432;5.482;2022-11-21T16:05:27;14.30;;;4.57;;
53833;SDS011;39735;51.432;5.482;2022-11-21T16:07:52;13.82;;;3.25;;
53833;SDS011;39735;51.432;5.482;2022-11-21T16:10:17;18.45;;;3.45;;
53833;SDS011;39735;51.432;5.482;2022-11-21T16:12:43;9.77;;;3.08;;
53833;SDS011;39735;51.432;5.482;2022-11-21T16:15:08;7.25;;;2.60;;
53833;SDS011;39735;51.432;5.482;2022-11-21T16:17:33;15.00;;;3.33;;
53833;SDS011;39735;51.432;5.482;2022-11-21T16:19:59;13.35;;;3.83;;
53833;SDS011;39735;51.432;5.482;2022-11-21T16:22:24;16.95;;;4.22;;
53833;SDS011;39735;51.432;5.482;2022-11-21T16:24:50;8.60;;;3.22;;
53833;SDS011;39735;51.432;5.482;2022-11-21T16:27:15;20.20;;;5.95;;
53833;SDS011;39735;51.432;5.482;2022-11-21T16:29:40;10.55;;;2.42;;
53833;SDS011;39735;51.432;5.482;2022-11-21T16:32:06;20.25;;;4.88;;